Time;durP1;ratioP1;P1;durP2;ratioP2;P2;SDS_P1;SDS_P2;PMS_P1;PMS_P2;Temp;Humidity;BMP_temperature;BMP_pressure;BME280_temperature;BME280_humidity;BME280_pressure;Samples;Min_cycle;Max_cycle;Signal;HPM_P1;HPM_P2
2022/06/10 00:00:07;;;;;;;2.70;2.50;;;14.30;99.90;;;;;;4970247;28;20287;-62
2022/06/10 00:02:32;;;;;;;4.10;2.60;;;14.40;99.90;;;;;;4969942;28;20242;-62
2022/06/10 00:04:59;;;;;;;4.17;2.73;;;14.40;99.90;;;;;;4974530;28;20217;-63
2022/06/10 00:07:27;;;;;;;2.72;2.20;;;14.00;99.90;;;;;;4977538;28;20555;-62
2022/06/10 00:09:53;;;;;;;3.90;2.72;;;14.30;99.90;;;;;;4968832;28;20716;-62
2022/06/10 00:12:19;;;;;;;3.17;2.55;;;14.50;99.90;;;;;;4977135;28;20229;-62
2022/06/10 00:14:44;;;;;;;3.10;2.77;;;14.30;99.90;;;;;;4974900;28;20219;-62
2022/06/10 00:17:10;;;;;;;3.47;2.37;;;14.40;99.90;;;;;;4969707;28;20534;-62
2022/06/10 00:19:36;;;;;;;3.93;3.10;;;14.10;99.90;;;;;;4968145;28;20752;-62
2022/06/10 00:22:01;;;;;;;2.67;2.30;;;14.20;99.90;;;;;;4973702;28;20225;-62
2022/06/10 00:24:27;;;;;;;2.53;2.33;;;14.30;99.90;;;;;;4975630;28;20184;-63
2022/06/10 00:26:53;;;;;;;3.70;2.43;;;14.10;99.90;;;;;;4972947;28;20192;-64
2022/06/10 00:29:19;;;;;;;3.53;2.73;;;14.20;99.90;;;;;;4968988;28;20470;-62
2022/06/10 00:31:44;;;;;;;7.63;2.30;;;14.10;99.90;;;;;;4970124;28;20455;-62
2022/06/10 00:34:10;;;;;;;2.70;2.30;;;13.90;99.90;;;;;;4976756;28;20188;-62
2022/06/10 00:36:39;;;;;;;2.30;2.20;;;14.10;99.90;;;;;;4969617;28;20687;-62
2022/06/10 00:39:05;;;;;;;3.25;2.75;;;14.00;99.90;;;;;;4974063;28;20695;-62
2022/06/10 00:41:30;;;;;;;3.73;2.90;;;14.00;99.90;;;;;;4974701;28;20264;-63
2022/06/10 00:43:56;;;;;;;6.20;2.97;;;13.80;99.90;;;;;;4978443;28;20192;-63
2022/06/10 00:46:34;;;;;;;3.03;2.40;;;13.80;99.90;;;;;;4976410;28;20602;-62
2022/06/10 00:49:03;;;;;;;6.38;2.50;;;13.80;99.90;;;;;;4975016;28;20257;-62
2022/06/10 00:51:39;;;;;;;3.33;2.47;;;13.90;99.90;;;;;;4971244;28;20177;-63
2022/06/10 00:54:14;;;;;;;5.60;2.95;;;13.80;99.90;;;;;;4973940;28;20190;-63
2022/06/10 00:56:45;;;;;;;2.63;2.42;;;14.00;99.90;;;;;;4974104;28;20662;-63
2022/06/10 00:59:20;;;;;;;4.53;2.33;;;13.70;99.90;;;;;;4975740;28;20211;-62
2022/06/10 01:01:46;;;;;;;3.70;2.35;;;13.90;99.90;;;;;;4970877;28;20184;-62
2022/06/10 01:04:12;;;;;;;2.80;2.40;;;13.80;99.90;;;;;;4975514;28;20567;-62
2022/06/10 01:06:38;;;;;;;3.10;2.90;;;14.00;99.90;;;;;;4981013;28;20447;-62
2022/06/10 01:09:05;;;;;;;2.83;2.45;;;13.80;99.90;;;;;;4973096;28;20218;-62
2022/06/10 01:12:01;;;;;;;3.53;2.78;;;13.90;99.90;;;;;;4970193;28;20188;-62
2022/06/10 01:14:48;;;;;;;3.40;3.10;;;14.00;99.90;;;;;;4973686;28;20213;-62
2022/06/10 01:17:32;;;;;;;6.13;3.20;;;13.80;99.90;;;;;;4969275;28;20215;-62
2022/06/10 01:20:39;;;;;;;3.53;2.70;;;13.90;99.90;;;;;;4973547;28;20299;-62
2022/06/10 01:23:35;;;;;;;3.35;2.60;;;13.80;99.90;;;;;;4971427;28;20183;-62
2022/06/10 01:26:31;;;;;;;2.80;2.60;;;13.70;99.90;;;;;;4972324;28;20295;-62
2022/06/10 01:29:29;;;;;;;3.95;2.80;;;13.60;99.90;;;;;;4967442;28;20710;-65
2022/06/10 01:32:09;;;;;;;3.25;2.47;;;13.70;99.90;;;;;;4968712;28;20629;-62
2022/06/10 01:34:58;;;;;;;4.35;2.42;;;13.80;99.90;;;;;;4976553;28;20176;-62
2022/06/10 01:37:36;;;;;;;3.00;2.80;;;13.70;99.90;;;;;;4972377;28;20189;-62
2022/06/10 01:40:25;;;;;;;3.88;2.65;;;13.70;99.90;;;;;;4970762;28;20585;-62
2022/06/10 01:43:16;;;;;;;3.20;2.55;;;13.50;99.90;;;;;;4975874;28;20192;-62
2022/06/10 01:45:56;;;;;;;2.72;2.45;;;13.60;99.90;;;;;;4968200;28;20203;-62
2022/06/10 01:48:41;;;;;;;3.45;2.80;;;13.80;99.90;;;;;;4969342;28;20591;-63
2022/06/10 01:51:20;;;;;;;4.78;2.70;;;13.50;99.90;;;;;;4970969;28;20190;-62
2022/06/10 01:54:00;;;;;;;3.20;2.45;;;13.30;99.90;;;;;;4970795;28;20192;-62
2022/06/10 01:56:29;;;;;;;4.07;2.75;;;13.50;99.90;;;;;;4972929;28;20179;-62
2022/06/10 01:59:08;;;;;;;3.58;2.63;;;13.50;99.90;;;;;;4969628;28;20216;-62
2022/06/10 02:01:41;;;;;;;3.40;3.10;;;13.60;99.90;;;;;;4966877;28;20203;-62
2022/06/10 02:04:15;;;;;;;3.72;2.80;;;13.60;99.90;;;;;;4975115;28;20195;-62
2022/06/10 02:06:58;;;;;;;2.90;2.70;;;13.30;99.90;;;;;;4973103;28;20191;-62
2022/06/10 02:09:39;;;;;;;3.45;2.90;;;13.30;99.90;;;;;;4969348;28;20216;-62
2022/06/10 02:12:18;;;;;;;2.95;2.75;;;13.10;99.90;;;;;;4968251;28;20640;-62
2022/06/10 02:15:00;;;;;;;3.28;2.53;;;13.20;99.90;;;;;;4971070;28;20672;-62
2022/06/10 02:17:29;;;;;;;3.30;3.00;;;13.30;99.90;;;;;;4968961;28;20188;-62
2022/06/10 02:19:59;;;;;;;4.30;3.10;;;13.10;99.90;;;;;;4971110;28;20320;-62
2022/06/10 02:22:40;;;;;;;2.88;2.50;;;13.10;99.90;;;;;;4971344;28;20214;-62
2022/06/10 02:25:17;;;;;;;3.20;2.60;;;13.40;99.90;;;;;;4974431;28;20210;-62
2022/06/10 02:27:47;;;;;;;2.72;2.53;;;13.10;99.90;;;;;;4968858;28;20215;-62
2022/06/10 02:30:43;;;;;;;3.85;2.90;;;13.30;99.90;;;;;;4969319;28;20214;-62
2022/06/10 02:33:10;;;;;;;3.70;3.25;;;13.20;99.90;;;;;;4971431;28;20201;-62
2022/06/10 02:35:50;;;;;;;3.20;2.90;;;12.90;99.90;;;;;;4971202;28;20187;-62
2022/06/10 02:38:30;;;;;;;3.03;2.70;;;13.20;99.90;;;;;;4966419;28;20192;-62
2022/06/10 02:41:05;;;;;;;3.65;2.80;;;13.30;99.90;;;;;;4973670;28;20187;-62
2022/06/10 02:43:49;;;;;;;3.30;3.00;;;13.00;99.90;;;;;;4973842;28;20181;-62
2022/06/10 02:46:21;;;;;;;3.22;2.92;;;13.10;99.90;;;;;;4970824;28;20187;-62
2022/06/10 02:49:09;;;;;;;3.85;2.80;;;13.00;99.90;;;;;;4971539;28;20704;-62
2022/06/10 02:51:37;;;;;;;2.95;2.67;;;12.90;99.90;;;;;;4968053;28;20205;-62
2022/06/10 02:54:07;;;;;;;3.20;2.90;;;12.90;99.90;;;;;;4971348;28;20561;-63
2022/06/10 02:56:33;;;;;;;3.90;3.00;;;12.90;99.90;;;;;;4972069;28;20245;-62
2022/06/10 03:02:16;;;;;;;3.50;2.65;;;12.80;99.90;;;;;;4968328;28;20577;-62
2022/06/10 03:05:14;;;;;;;3.08;2.78;;;12.80;99.90;;;;;;4969781;28;20210;-62
2022/06/10 03:08:14;;;;;;;3.90;3.30;;;12.70;99.90;;;;;;4968048;28;20210;-62
2022/06/10 03:11:00;;;;;;;4.35;3.20;;;12.70;99.90;;;;;;4968643;28;20218;-62
2022/06/10 03:13:35;;;;;;;4.90;3.10;;;12.70;99.90;;;;;;4967330;28;20190;-62
2022/06/10 03:16:13;;;;;;;3.45;3.10;;;12.90;99.90;;;;;;4971819;28;20237;-62
2022/06/10 03:19:07;;;;;;;5.18;3.63;;;12.70;99.90;;;;;;4968725;28;20195;-62
2022/06/10 03:21:44;;;;;;;3.65;3.35;;;12.80;99.90;;;;;;4969822;28;20552;-62
2022/06/10 03:24:23;;;;;;;4.00;2.95;;;12.80;99.90;;;;;;4972022;28;20270;-62
2022/06/10 03:27:02;;;;;;;4.53;3.08;;;12.70;99.90;;;;;;4970703;28;20195;-62
2022/06/10 03:29:37;;;;;;;5.45;3.75;;;12.90;99.90;;;;;;4968655;28;20710;-62
2022/06/10 03:32:16;;;;;;;3.83;3.10;;;12.70;99.90;;;;;;4968482;28;20243;-62
2022/06/10 03:34:47;;;;;;;3.13;2.83;;;12.70;99.90;;;;;;4970862;28;20176;-62
2022/06/10 03:37:17;;;;;;;3.20;2.90;;;12.70;99.90;;;;;;4967011;28;20187;-61
2022/06/10 03:39:50;;;;;;;3.42;3.10;;;12.80;99.90;;;;;;4969421;28;20210;-62
2022/06/10 03:42:18;;;;;;;3.95;3.55;;;13.00;99.90;;;;;;4971773;28;20188;-61
2022/06/10 03:44:47;;;;;;;7.97;3.92;;;12.90;99.90;;;;;;4972707;28;20347;-61
2022/06/10 03:47:18;;;;;;;3.50;2.97;;;12.60;99.90;;;;;;4969726;28;20211;-62
2022/06/10 03:49:57;;;;;;;3.35;3.15;;;13.00;99.90;;;;;;4968353;28;20246;-61
2022/06/10 03:52:26;;;;;;;3.35;3.05;;;12.80;99.90;;;;;;4971063;28;20186;-61
2022/06/10 03:54:51;;;;;;;4.20;3.10;;;12.70;99.90;;;;;;4971796;28;20574;-61
2022/06/10 03:57:17;;;;;;;4.30;3.50;;;12.60;99.90;;;;;;4969327;28;20195;-62
2022/06/10 03:59:44;;;;;;;3.75;3.28;;;13.10;99.90;;;;;;4968319;28;20214;-62
2022/06/10 04:02:10;;;;;;;6.35;3.35;;;13.10;99.90;;;;;;4973816;28;20707;-62
2022/06/10 04:04:36;;;;;;;5.20;2.93;;;12.90;99.90;;;;;;4971685;28;20207;-62
2022/06/10 04:07:02;;;;;;;3.60;3.40;;;12.90;99.90;;;;;;4971144;28;20940;-62
2022/06/10 04:09:28;;;;;;;3.42;3.13;;;12.90;99.90;;;;;;4968190;28;20461;-61
2022/06/10 04:11:54;;;;;;;3.60;3.30;;;12.90;99.90;;;;;;4970021;28;20653;-62
2022/06/10 04:14:19;;;;;;;3.97;2.87;;;12.90;99.90;;;;;;4969064;28;20192;-62
2022/06/10 04:16:45;;;;;;;3.50;3.03;;;12.80;99.90;;;;;;4967856;28;20191;-61
2022/06/10 04:19:12;;;;;;;3.70;3.07;;;12.90;99.90;;;;;;4967171;28;20637;-62
2022/06/10 04:21:38;;;;;;;4.03;3.67;;;12.90;99.90;;;;;;4970683;28;20666;-61
2022/06/10 04:24:04;;;;;;;4.23;3.03;;;13.00;99.90;;;;;;4968120;28;20192;-61
2022/06/10 04:26:29;;;;;;;3.08;2.88;;;13.00;99.90;;;;;;4967173;28;20684;-62
2022/06/10 04:28:55;;;;;;;4.00;3.60;;;13.20;99.90;;;;;;4969552;28;20248;-62
2022/06/10 04:31:21;;;;;;;4.13;3.00;;;13.20;99.90;;;;;;4964335;28;20188;-62
2022/06/10 04:33:47;;;;;;;3.77;3.23;;;13.00;99.90;;;;;;4963139;28;20225;-62
2022/06/10 04:36:18;;;;;;;4.55;3.60;;;13.20;99.90;;;;;;4969345;28;20180;-62
2022/06/10 04:38:44;;;;;;;6.45;4.00;;;13.30;99.90;;;;;;4973614;28;20668;-62
2022/06/10 04:41:11;;;;;;;5.72;3.53;;;13.40;99.90;;;;;;4971283;28;20700;-62
2022/06/10 04:43:38;;;;;;;4.57;3.20;;;13.40;99.90;;;;;;4970982;28;20705;-61
2022/06/10 04:46:06;;;;;;;4.25;3.53;;;13.20;99.90;;;;;;4974282;28;20183;-62
2022/06/10 04:48:33;;;;;;;5.60;3.30;;;13.30;99.90;;;;;;4967806;28;20219;-62
2022/06/10 04:50:59;;;;;;;4.25;3.30;;;13.40;99.90;;;;;;4977225;28;20177;-62
2022/06/10 04:53:24;;;;;;;3.28;2.97;;;13.60;99.90;;;;;;4975988;28;20211;-62
2022/06/10 04:55:50;;;;;;;3.57;3.27;;;13.60;99.90;;;;;;4978332;28;20597;-73
2022/06/10 04:58:16;;;;;;;3.30;3.03;;;13.60;99.90;;;;;;4967307;28;20180;-70
2022/06/10 05:00:47;;;;;;;3.35;2.92;;;13.80;99.90;;;;;;4972889;28;20226;-69
2022/06/10 05:03:14;;;;;;;4.15;3.75;;;13.90;99.90;;;;;;4972787;28;20700;-68
2022/06/10 05:05:40;;;;;;;3.90;3.22;;;14.10;99.90;;;;;;4975103;28;20187;-68
2022/06/10 05:08:07;;;;;;;4.73;3.60;;;14.00;99.90;;;;;;4966878;28;20213;-68
2022/06/10 05:10:33;;;;;;;5.78;3.00;;;13.80;99.90;;;;;;4964652;28;20208;-71
2022/06/10 05:12:58;;;;;;;3.53;2.93;;;14.20;99.90;;;;;;4979791;28;20180;-64
2022/06/10 05:15:24;;;;;;;3.00;2.80;;;14.10;99.90;;;;;;4968093;28;20654;-67
2022/06/10 05:17:52;;;;;;;4.70;3.10;;;14.30;99.90;;;;;;4966964;28;20230;-68
2022/06/10 05:20:21;;;;;;;2.80;2.50;;;14.20;99.90;;;;;;4972157;28;20235;-67
2022/06/10 05:22:46;;;;;;;3.08;2.78;;;14.60;99.90;;;;;;4972286;28;20560;-68
2022/06/10 05:25:12;;;;;;;6.80;3.37;;;14.50;99.90;;;;;;4973136;28;20463;-65
2022/06/10 05:27:38;;;;;;;4.80;2.90;;;14.40;99.90;;;;;;4971398;28;20216;-67
2022/06/10 05:30:05;;;;;;;6.50;2.90;;;14.60;99.90;;;;;;4966849;28;20208;-65
2022/06/10 05:32:31;;;;;;;3.60;3.15;;;14.90;99.90;;;;;;4968797;28;20551;-63
2022/06/10 05:34:57;;;;;;;5.13;4.13;;;15.00;99.90;;;;;;4973012;28;20243;-68
2022/06/10 05:37:25;;;;;;;7.30;3.80;;;14.90;99.90;;;;;;4973389;28;20848;-66
2022/06/10 05:39:52;;;;;;;3.60;3.25;;;15.30;99.90;;;;;;4970489;28;20245;-66
2022/06/10 05:42:18;;;;;;;4.60;3.63;;;15.40;99.90;;;;;;4978138;28;20684;-66
2022/06/10 05:44:46;;;;;;;4.00;2.85;;;15.30;99.90;;;;;;4976211;28;20207;-66
2022/06/10 05:47:15;;;;;;;4.95;2.88;;;15.50;99.90;;;;;;4969354;28;20196;-61
2022/06/10 05:49:43;;;;;;;6.55;2.90;;;15.70;99.90;;;;;;4968955;28;20703;-60
2022/06/10 05:52:11;;;;;;;5.10;3.72;;;15.90;99.90;;;;;;4969752;28;20739;-60
2022/06/10 05:54:43;;;;;;;5.20;3.70;;;15.80;99.90;;;;;;4963658;28;20180;-71
2022/06/10 05:57:09;;;;;;;3.88;3.40;;;16.00;99.90;;;;;;4970269;28;20176;-70
2022/06/10 05:59:35;;;;;;;5.53;3.22;;;16.10;99.90;;;;;;4966104;28;20228;-70
2022/06/10 06:02:04;;;;;;;3.88;3.38;;;16.10;99.90;;;;;;4957949;28;20184;-69
2022/06/10 06:04:30;;;;;;;4.55;3.17;;;16.70;99.90;;;;;;4968530;28;20283;-66
2022/06/10 06:06:56;;;;;;;5.20;3.13;;;16.50;99.90;;;;;;4971113;28;20275;-66
2022/06/10 06:09:22;;;;;;;3.43;3.13;;;16.50;99.90;;;;;;4970679;28;20208;-62
2022/06/10 06:11:50;;;;;;;3.78;2.60;;;16.70;99.90;;;;;;4973418;28;20463;-70
2022/06/10 06:14:17;;;;;;;6.35;3.40;;;16.70;99.90;;;;;;4970265;28;20689;-68
2022/06/10 06:16:45;;;;;;;6.40;3.17;;;16.80;99.90;;;;;;4969075;28;20619;-70
2022/06/10 06:19:10;;;;;;;5.78;3.00;;;16.80;99.90;;;;;;4969784;28;20279;-67
2022/06/10 06:21:36;;;;;;;5.93;3.17;;;16.80;99.90;;;;;;4969389;28;20669;-60
2022/06/10 06:24:02;;;;;;;3.30;3.00;;;17.00;99.90;;;;;;4971952;28;20709;-74
2022/06/10 06:26:28;;;;;;;5.70;4.23;;;17.00;99.90;;;;;;4973281;28;20291;-73
2022/06/10 06:28:54;;;;;;;4.83;4.10;;;17.30;99.90;;;;;;4969140;28;20266;-70
2022/06/10 06:31:20;;;;;;;2.70;2.50;;;17.70;99.90;;;;;;4966560;28;20453;-69
2022/06/10 06:33:45;;;;;;;4.03;3.40;;;17.80;99.70;;;;;;4969490;28;20295;-69
2022/06/10 06:36:17;;;;;;;4.47;3.20;;;17.90;99.10;;;;;;4966976;28;20195;-67
2022/06/10 06:38:43;;;;;;;3.40;2.70;;;18.10;98.90;;;;;;4964627;28;20248;-67
2022/06/10 06:41:11;;;;;;;4.70;2.87;;;18.10;98.90;;;;;;4966632;28;20259;-68
2022/06/10 06:43:36;;;;;;;8.00;4.97;;;18.00;98.90;;;;;;4957642;28;21262;-66
2022/06/10 06:46:03;;;;;;;8.82;5.72;;;18.20;98.30;;;;;;4967578;28;20201;-69
2022/06/10 06:48:28;;;;;;;8.18;3.13;;;18.30;98.20;;;;;;4964642;28;20206;-73
2022/06/10 06:50:54;;;;;;;4.03;3.20;;;18.30;97.90;;;;;;4966272;28;20189;-72
2022/06/10 06:53:20;;;;;;;5.63;3.60;;;18.30;97.90;;;;;;4967777;28;20559;-74
2022/06/10 06:55:46;;;;;;;5.80;3.30;;;18.50;97.60;;;;;;4967388;28;20204;-71
2022/06/10 06:58:15;;;;;;;3.40;3.10;;;18.70;97.40;;;;;;4968520;28;20192;-70
2022/06/10 07:00:41;;;;;;;4.07;3.10;;;18.80;97.20;;;;;;4969791;28;20469;-70
2022/06/10 07:03:07;;;;;;;5.53;3.50;;;19.20;96.60;;;;;;4966249;28;20637;-71
2022/06/10 07:05:35;;;;;;;3.92;2.90;;;19.80;95.30;;;;;;4968241;28;20787;-72
2022/06/10 07:08:01;;;;;;;4.93;3.10;;;20.70;94.50;;;;;;4969115;28;20208;-70
2022/06/10 07:10:27;;;;;;;5.27;2.93;;;22.00;91.40;;;;;;4968995;28;20196;-70
2022/06/10 07:12:53;;;;;;;5.60;2.67;;;24.30;85.40;;;;;;4971468;28;20440;-68
2022/06/10 07:15:21;;;;;;;3.30;2.70;;;27.50;76.40;;;;;;4969583;28;20455;-73
2022/06/10 07:17:47;;;;;;;6.53;2.53;;;29.80;63.80;;;;;;4967513;28;20194;-62
2022/06/10 07:20:25;;;;;;;3.60;2.67;;;29.70;59.10;;;;;;4967149;28;20462;-67
2022/06/10 07:22:51;;;;;;;3.40;2.60;;;30.60;57.30;;;;;;4969521;28;20449;-66
2022/06/10 07:25:18;;;;;;;3.60;2.50;;;32.20;54.50;;;;;;4965838;28;20445;-65
2022/06/10 07:27:43;;;;;;;2.93;2.67;;;33.90;51.80;;;;;;4967515;28;20270;-67
2022/06/10 07:30:12;;;;;;;4.57;2.90;;;33.70;50.10;;;;;;4968689;28;20964;-67
2022/06/10 07:32:37;;;;;;;5.07;3.17;;;35.70;47.70;;;;;;4968443;28;20383;-68
2022/06/10 07:35:03;;;;;;;7.30;3.83;;;35.30;44.80;;;;;;4970802;28;20561;-69
2022/06/10 07:37:29;;;;;;;2.70;2.27;;;32.80;47.60;;;;;;4967289;28;20192;-70
2022/06/10 07:39:55;;;;;;;3.70;3.00;;;35.50;45.80;;;;;;4966316;28;20463;-70
2022/06/10 07:42:20;;;;;;;4.10;2.77;;;35.20;43.00;;;;;;4967366;28;20179;-71
2022/06/10 07:44:46;;;;;;;4.33;2.80;;;35.20;44.20;;;;;;4971455;28;20192;-70
2022/06/10 07:47:14;;;;;;;3.73;2.60;;;37.30;42.30;;;;;;4965888;28;20188;-68
2022/06/10 07:49:39;;;;;;;4.60;3.03;;;37.80;40.20;;;;;;4967500;28;20276;-71
2022/06/10 07:52:06;;;;;;;4.50;3.23;;;36.70;39.20;;;;;;4970557;28;20546;-71
2022/06/10 07:54:36;;;;;;;4.30;3.70;;;35.50;42.10;;;;;;4963992;28;20192;-67
2022/06/10 07:57:03;;;;;;;3.47;2.60;;;36.50;41.30;;;;;;4966450;28;20447;-65
2022/06/10 07:59:29;;;;;;;3.73;2.97;;;37.00;40.00;;;;;;4962193;28;20538;-63
2022/06/10 08:01:55;;;;;;;6.13;3.10;;;37.80;39.10;;;;;;4962159;28;20467;-68
2022/06/10 08:04:21;;;;;;;5.60;2.97;;;37.60;39.20;;;;;;4967310;28;20455;-68
2022/06/10 08:06:48;;;;;;;3.57;2.43;;;37.90;38.20;;;;;;4968625;28;20212;-68
2022/06/10 08:09:16;;;;;;;5.70;2.83;;;38.30;37.70;;;;;;4963545;28;20882;-68
2022/06/10 08:11:48;;;;;;;5.47;4.97;;;35.70;39.80;;;;;;4985039;28;20822;-68
2022/06/10 08:14:16;;;;;;;3.47;2.70;;;36.80;39.10;;;;;;4968678;28;20450;-68
2022/06/10 08:16:42;;;;;;;6.17;5.57;;;35.40;40.70;;;;;;4965957;28;20532;-67
2022/06/10 08:19:08;;;;;;;4.33;3.63;;;37.30;39.10;;;;;;4970077;28;20542;-68
2022/06/10 08:24:20;;;;;;;4.63;3.07;;;38.10;37.30;;;;;;4971349;28;20234;-68
2022/06/10 08:26:46;;;;;;;4.23;2.60;;;38.90;36.20;;;;;;4969133;28;21098;-68
2022/06/10 08:29:11;;;;;;;6.47;3.30;;;37.80;37.10;;;;;;4973800;28;20463;-68
2022/06/10 08:31:37;;;;;;;4.27;2.80;;;34.70;38.60;;;;;;4969366;28;20535;-68
2022/06/10 08:34:04;;;;;;;4.43;3.60;;;34.40;41.70;;;;;;4969791;28;20267;-68
2022/06/10 08:36:31;;;;;;;4.00;2.67;;;34.60;40.30;;;;;;4973783;28;20175;-68
2022/06/10 08:38:57;;;;;;;4.43;3.73;;;34.60;40.60;;;;;;4970717;28;20478;-67
2022/06/10 08:41:32;;;;;;;3.00;2.37;;;32.50;42.10;;;;;;4970707;28;20518;-68
2022/06/10 08:44:26;;;;;;;3.63;2.33;;;31.70;44.00;;;;;;4979301;28;20448;-68
2022/06/10 08:47:29;;;;;;;5.57;2.20;;;31.60;44.90;;;;;;4972392;28;20445;-68
2022/06/10 08:50:00;;;;;;;3.50;2.07;;;33.60;42.10;;;;;;4975123;28;20459;-68
2022/06/10 08:52:51;;;;;;;2.83;1.97;;;35.30;38.50;;;;;;4973587;28;20464;-68
2022/06/10 08:55:54;;;;;;;6.00;2.50;;;36.20;36.70;;;;;;4969135;28;20443;-69
2022/06/10 08:58:26;;;;;;;5.03;2.00;;;36.10;34.90;;;;;;4967181;28;20435;-68
2022/06/10 09:00:55;;;;;;;2.87;1.90;;;35.50;36.20;;;;;;4970510;28;21013;-68
2022/06/10 09:03:33;;;;;;;3.77;1.93;;;33.60;36.70;;;;;;4972446;28;20497;-68
2022/06/10 09:06:03;;;;;;;6.30;2.10;;;31.30;38.80;;;;;;4972792;28;20438;-68
2022/06/10 09:08:33;;;;;;;5.37;4.87;;;30.50;42.30;;;;;;4972874;28;20471;-68
2022/06/10 09:11:20;;;;;;;4.33;2.63;;;31.60;40.70;;;;;;4968569;28;20915;-68
2022/06/10 09:14:09;;;;;;;4.13;2.87;;;30.60;41.80;;;;;;4972883;28;20435;-68
2022/06/10 09:16:41;;;;;;;3.03;2.37;;;31.10;42.70;;;;;;4965341;28;20448;-69
2022/06/10 09:19:26;;;;;;;4.30;2.00;;;30.60;43.50;;;;;;4965142;28;20557;-68
2022/06/10 09:22:30;;;;;;;3.33;2.20;;;29.50;44.60;;;;;;4969060;28;20444;-68
2022/06/10 09:25:09;;;;;;;4.13;2.20;;;28.20;45.70;;;;;;4969529;28;20569;-68
2022/06/10 09:27:44;;;;;;;3.60;2.07;;;27.60;48.10;;;;;;4970775;28;20459;-68
2022/06/10 09:30:16;;;;;;;3.73;2.17;;;27.90;47.90;;;;;;4970941;28;20960;-68
2022/06/10 09:32:58;;;;;;;4.80;2.33;;;29.20;47.10;;;;;;4972229;28;20498;-68
2022/06/10 09:35:48;;;;;;;3.73;3.03;;;30.50;44.50;;;;;;4967805;28;20469;-68
2022/06/10 09:38:23;;;;;;;2.70;2.50;;;30.60;44.00;;;;;;4973214;28;20955;-68
2022/06/10 09:41:08;;;;;;;4.53;2.43;;;29.50;45.10;;;;;;4970744;28;20475;-67
2022/06/10 09:44:15;;;;;;;4.20;2.90;;;27.80;46.80;;;;;;4968876;28;20434;-67
2022/06/10 09:47:07;;;;;;;5.37;2.43;;;27.60;49.50;;;;;;4967436;28;20448;-67
2022/06/10 09:50:09;;;;;;;3.57;3.27;;;26.10;50.90;;;;;;4968526;28;20462;-67
2022/06/10 09:52:56;;;;;;;3.17;2.30;;;25.40;53.10;;;;;;4978334;28;20525;-67
2022/06/10 09:55:35;;;;;;;4.07;3.17;;;24.70;53.70;;;;;;4966863;28;20426;-67
2022/06/10 09:58:04;;;;;;;4.10;2.97;;;24.10;55.40;;;;;;4966248;28;20439;-67
2022/06/10 10:00:51;;;;;;;2.73;2.37;;;23.90;56.30;;;;;;4969503;28;20480;-67
2022/06/10 10:03:40;;;;;;;3.93;3.03;;;24.50;56.20;;;;;;4966813;28;20461;-67
2022/06/10 10:06:26;;;;;;;4.50;2.77;;;26.80;53.10;;;;;;4964759;28;20423;-68
2022/06/10 10:08:52;;;;;;;4.10;2.00;;;29.20;49.20;;;;;;4970720;28;20484;-68
2022/06/10 10:11:36;;;;;;;3.57;2.47;;;30.60;44.90;;;;;;4967034;28;20437;-68
2022/06/10 10:14:07;;;;;;;5.30;2.80;;;31.50;44.40;;;;;;4971446;28;20658;-68
2022/06/10 10:17:00;;;;;;;2.97;2.40;;;31.30;43.10;;;;;;4965360;28;20437;-68
2022/06/10 10:19:46;;;;;;;4.50;2.60;;;30.60;45.10;;;;;;4968871;28;20501;-68
2022/06/10 10:22:24;;;;;;;2.60;2.40;;;30.30;44.90;;;;;;4969221;28;20973;-68
2022/06/10 10:24:50;;;;;;;5.17;2.50;;;32.60;42.50;;;;;;4968581;28;20841;-68
2022/06/10 10:27:22;;;;;;;3.30;2.00;;;33.80;41.20;;;;;;4970706;28;20431;-68
2022/06/10 10:29:52;;;;;;;3.63;2.23;;;35.20;38.70;;;;;;4973990;28;20460;-68
2022/06/10 10:32:23;;;;;;;2.70;1.70;;;35.40;36.50;;;;;;4968987;28;20838;-68
2022/06/10 10:34:55;;;;;;;2.60;2.00;;;36.20;36.90;;;;;;4974319;28;20514;-68
2022/06/10 10:37:31;;;;;;;4.57;1.90;;;35.70;35.70;;;;;;4969278;28;21008;-68
2022/06/10 10:40:13;;;;;;;5.20;2.57;;;34.60;37.00;;;;;;4973935;28;20549;-68
2022/06/10 10:42:42;;;;;;;4.60;2.13;;;34.70;36.80;;;;;;4969607;28;20439;-68
2022/06/10 10:45:31;;;;;;;2.33;2.13;;;36.20;35.70;;;;;;4970581;28;20526;-68
2022/06/10 10:48:21;;;;;;;2.60;2.33;;;36.40;35.20;;;;;;4966718;28;20467;-68
2022/06/10 10:51:00;;;;;;;2.47;2.10;;;34.60;35.30;;;;;;4968967;28;20455;-68
2022/06/10 10:53:51;;;;;;;4.87;2.00;;;35.00;36.10;;;;;;4973022;28;20994;-68
2022/06/10 10:56:18;;;;;;;2.60;2.40;;;35.80;35.50;;;;;;4967010;28;20451;-68
2022/06/10 10:58:53;;;;;;;3.30;2.90;;;34.70;35.70;;;;;;4970713;28;20462;-68
2022/06/10 11:01:43;;;;;;;3.40;2.90;;;35.00;35.50;;;;;;4960883;28;20825;-68
2022/06/10 11:04:16;;;;;;;3.20;2.00;;;34.10;36.80;;;;;;4968244;28;21094;-68
2022/06/10 11:06:42;;;;;;;4.03;2.60;;;34.50;36.60;;;;;;4970030;28;20436;-68
2022/06/10 11:09:25;;;;;;;5.77;2.83;;;34.20;36.90;;;;;;4970681;28;20482;-68
2022/06/10 11:11:53;;;;;;;6.50;2.70;;;32.70;39.00;;;;;;4964478;28;20896;-68
2022/06/10 11:14:38;;;;;;;6.77;2.20;;;31.40;40.20;;;;;;4970476;28;20436;-68
2022/06/10 11:17:13;;;;;;;3.23;2.30;;;30.70;41.40;;;;;;4963734;28;20443;-68
2022/06/10 11:19:43;;;;;;;3.87;2.33;;;31.00;41.30;;;;;;4973602;28;20545;-68
2022/06/10 11:22:20;;;;;;;3.73;2.27;;;31.30;40.70;;;;;;4970735;28;20527;-68
2022/06/10 11:24:54;;;;;;;4.13;2.47;;;32.50;39.10;;;;;;4967755;28;20442;-68
2022/06/10 11:27:27;;;;;;;3.07;1.90;;;32.60;38.70;;;;;;4969832;28;20474;-68
2022/06/10 11:30:07;;;;;;;2.27;1.80;;;32.70;37.90;;;;;;4970749;28;21011;-68
2022/06/10 11:32:39;;;;;;;3.00;2.33;;;33.00;37.40;;;;;;4969934;28;20451;-68
2022/06/10 11:35:33;;;;;;;7.27;2.77;;;33.20;37.80;;;;;;4969992;28;20873;-68
2022/06/10 11:38:05;;;;;;;2.30;2.10;;;33.70;36.80;;;;;;4985862;28;20958;-68
2022/06/10 11:40:43;;;;;;;2.37;2.00;;;32.90;37.50;;;;;;4970992;28;20982;-68
2022/06/10 11:43:33;;;;;;;16.83;2.93;;;32.40;38.00;;;;;;4969393;28;20453;-68
2022/06/10 11:46:07;;;;;;;2.80;1.97;;;32.60;37.70;;;;;;4968726;28;20437;-66
2022/06/10 11:48:49;;;;;;;3.17;1.97;;;31.90;38.70;;;;;;4969313;28;20992;-69
2022/06/10 11:51:29;;;;;;;2.67;2.00;;;31.10;39.20;;;;;;4971391;28;20506;-67
2022/06/10 11:54:13;;;;;;;4.00;2.00;;;30.00;40.60;;;;;;4974529;28;20436;-68
2022/06/10 12:00:03;;;;;;;4.20;2.03;;;27.70;45.10;;;;;;4969507;28;20454;-67
2022/06/10 12:03:28;;;;;;;2.60;2.10;;;27.10;45.60;;;;;;4972746;28;20451;-67
2022/06/10 12:06:18;;;;;;;3.30;2.10;;;26.30;47.30;;;;;;4970547;28;20455;-66
2022/06/10 12:08:55;;;;;;;4.37;1.93;;;25.70;48.50;;;;;;4972712;28;20568;-66
2022/06/10 12:11:45;;;;;;;4.10;2.10;;;25.40;48.90;;;;;;4969774;28;20466;-66
2022/06/10 12:14:22;;;;;;;4.20;1.80;;;25.20;49.60;;;;;;4972704;28;20454;-67
2022/06/10 12:17:02;;;;;;;3.33;2.33;;;25.00;50.00;;;;;;4979316;28;20508;-66
2022/06/10 12:19:42;;;;;;;3.50;2.67;;;24.80;50.50;;;;;;4974025;28;21111;-66
2022/06/10 12:22:10;;;;;;;2.33;2.10;;;24.90;51.20;;;;;;4977780;28;20431;-66
2022/06/10 12:24:36;;;;;;;3.17;2.70;;;25.10;50.90;;;;;;4973847;28;21019;-67
2022/06/10 12:27:05;;;;;;;4.70;1.73;;;25.20;50.90;;;;;;4974543;28;20443;-68
2022/06/10 12:29:46;;;;;;;4.70;2.63;;;25.40;50.60;;;;;;4975816;28;20223;-68
2022/06/10 12:32:12;;;;;;;2.70;2.13;;;25.70;50.50;;;;;;4970857;28;20538;-67
2022/06/10 12:34:41;;;;;;;2.10;1.90;;;25.50;50.60;;;;;;4977409;28;20528;-67
2022/06/10 12:37:23;;;;;;;2.80;2.20;;;25.80;50.20;;;;;;4979705;28;20203;-67
2022/06/10 12:39:59;;;;;;;3.50;2.20;;;25.90;49.10;;;;;;4975833;28;20463;-68
2022/06/10 12:42:43;;;;;;;4.10;2.00;;;25.80;48.80;;;;;;4971222;28;20982;-68
2022/06/10 12:45:21;;;;;;;2.47;1.87;;;25.80;49.10;;;;;;4970674;28;20786;-68
2022/06/10 12:47:52;;;;;;;2.67;1.60;;;25.70;48.90;;;;;;4965300;28;20464;-67
2022/06/10 12:50:30;;;;;;;2.10;1.90;;;25.70;49.60;;;;;;4972911;28;21011;-69
2022/06/10 12:53:05;;;;;;;2.00;1.80;;;25.60;49.50;;;;;;4968515;28;20809;-69
2022/06/10 12:55:44;;;;;;;2.83;1.90;;;25.80;49.90;;;;;;4962806;28;20444;-68
2022/06/10 12:58:38;;;;;;;3.97;1.93;;;25.80;49.40;;;;;;4968478;28;20476;-71
2022/06/10 13:01:34;;;;;;;2.47;2.27;;;25.90;49.50;;;;;;4963185;28;20463;-71
2022/06/10 13:04:05;;;;;;;2.90;1.87;;;26.10;49.50;;;;;;4964716;28;20980;-71
2022/06/10 13:06:50;;;;;;;2.03;1.80;;;26.10;49.20;;;;;;4969644;28;21505;-70
2022/06/10 13:09:25;;;;;;;3.60;2.30;;;26.20;48.50;;;;;;4969646;28;20474;-69
2022/06/10 13:12:20;;;;;;;2.43;2.10;;;26.40;48.70;;;;;;4969189;28;20457;-70
2022/06/10 13:15:11;;;;;;;2.90;1.80;;;26.50;48.20;;;;;;4967537;28;20505;-69
2022/06/10 13:17:55;;;;;;;3.33;2.30;;;26.40;48.60;;;;;;4969120;28;21021;-68
2022/06/10 13:20:22;;;;;;;2.73;2.53;;;26.30;48.90;;;;;;4969504;28;20485;-66
2022/06/10 13:23:27;;;;;;;2.30;1.77;;;26.20;49.00;;;;;;4970447;28;20809;-66
2022/06/10 13:26:04;;;;;;;4.00;2.17;;;26.30;49.00;;;;;;4988124;28;20448;-68
2022/06/10 13:28:34;;;;;;;2.33;2.13;;;26.40;48.00;;;;;;5004986;28;20484;-70
2022/06/10 13:31:12;;;;;;;2.90;1.80;;;26.10;48.40;;;;;;4976853;28;20445;-67